Time;durP1;ratioP1;P1;durP2;ratioP2;P2;SDS_P1;SDS_P2;PMS_P1;PMS_P2;Temp;Humidity;BMP_temperature;BMP_pressure;BME280_temperature;BME280_humidity;BME280_pressure;Samples;Min_cycle;Max_cycle;Signal;HPM_P1;HPM_P2
2023/08/27 00:00:58;;;;;;;9.35;6.00;;;;;;;;;;5104821;28;20044;-57
2023/08/27 00:03:25;;;;;;;6.68;5.60;;;;;;;;;;5107208;28;20456;-57
2023/08/27 00:05:51;;;;;;;7.90;6.35;;;;;;;;;;5113143;27;20044;-57
2023/08/27 00:08:17;;;;;;;8.45;6.50;;;;;;;;;;5109925;28;20039;-57
2023/08/27 00:10:44;;;;;;;8.82;6.03;;;;;;;;;;5098870;28;20412;-57
2023/08/27 00:13:10;;;;;;;7.28;5.82;;;;;;;;;;5094494;28;20039;-57
2023/08/27 00:15:36;;;;;;;8.30;6.15;;;;;;;;;;5105902;28;20047;-57
2023/08/27 00:18:05;;;;;;;9.32;6.03;;;;;;;;;;5111415;28;20483;-57
2023/08/27 00:20:33;;;;;;;10.40;7.40;;;;;;;;;;5104316;28;20192;-57
2023/08/27 00:22:59;;;;;;;8.27;6.68;;;;;;;;;;5099503;28;20564;-57
2023/08/27 00:25:25;;;;;;;7.95;6.53;;;;;;;;;;5102759;28;20043;-57
2023/08/27 00:27:51;;;;;;;12.32;7.10;;;;;;;;;;5098736;28;20044;-57
2023/08/27 00:30:17;;;;;;;9.23;6.78;;;;;;;;;;5095020;28;20061;-57
2023/08/27 00:32:44;;;;;;;8.82;7.18;;;;;;;;;;5101648;28;20412;-57
2023/08/27 00:35:10;;;;;;;10.82;6.95;;;;;;;;;;5109702;28;20067;-57
2023/08/27 00:37:36;;;;;;;8.65;7.57;;;;;;;;;;5113333;28;20048;-57
2023/08/27 00:40:03;;;;;;;9.50;7.20;;;;;;;;;;5098273;28;20035;-57
2023/08/27 00:42:29;;;;;;;11.68;7.88;;;;;;;;;;5100284;27;20551;-57
2023/08/27 00:44:56;;;;;;;9.85;7.28;;;;;;;;;;5096996;28;20124;-57
2023/08/27 00:47:22;;;;;;;11.00;8.35;;;;;;;;;;5099023;28;20080;-57
2023/08/27 00:49:50;;;;;;;11.10;8.60;;;;;;;;;;5087144;28;20147;-57
2023/08/27 00:52:18;;;;;;;10.20;8.05;;;;;;;;;;5085536;28;20396;-57
2023/08/27 00:54:44;;;;;;;14.18;8.32;;;;;;;;;;5086912;28;20083;-57
2023/08/27 00:57:10;;;;;;;10.45;7.70;;;;;;;;;;5093016;28;20067;-57
2023/08/27 00:59:37;;;;;;;9.57;7.68;;;;;;;;;;5083531;28;20048;-57
2023/08/27 01:02:04;;;;;;;10.02;8.77;;;;;;;;;;5083905;28;20123;-57
2023/08/27 01:04:31;;;;;;;9.43;8.10;;;;;;;;;;5086630;28;20051;-57
2023/08/27 01:07:01;;;;;;;14.88;8.95;;;;;;;;;;5088529;28;20497;-57
2023/08/27 01:09:28;;;;;;;9.85;8.13;;;;;;;;;;5084058;28;20080;-57
2023/08/27 01:11:54;;;;;;;11.57;9.32;;;;;;;;;;5085118;28;20051;-57
2023/08/27 01:14:22;;;;;;;10.25;8.85;;;;;;;;;;5088909;28;20046;-57
2023/08/27 01:16:51;;;;;;;11.93;9.70;;;;;;;;;;5083539;28;20768;-57
2023/08/27 01:19:17;;;;;;;16.63;9.75;;;;;;;;;;5086658;28;20105;-56
2023/08/27 01:21:44;;;;;;;15.00;11.40;;;;;;;;;;5092707;28;20058;-57
2023/08/27 01:24:11;;;;;;;15.90;10.98;;;;;;;;;;5085817;28;20108;-57
2023/08/27 01:26:40;;;;;;;12.82;11.50;;;;;;;;;;5086013;28;20053;-57
2023/08/27 01:29:10;;;;;;;13.27;10.45;;;;;;;;;;5093049;28;20340;-57
2023/08/27 01:31:40;;;;;;;13.85;10.52;;;;;;;;;;5094522;28;20074;-57
2023/08/27 01:34:08;;;;;;;13.27;10.95;;;;;;;;;;5095216;28;20044;-57
2023/08/27 01:36:35;;;;;;;13.80;10.68;;;;;;;;;;5102116;27;20050;-57
2023/08/27 01:39:04;;;;;;;12.65;9.90;;;;;;;;;;5085153;28;20517;-57
2023/08/27 01:41:30;;;;;;;15.30;10.30;;;;;;;;;;5092773;28;20036;-57
2023/08/27 01:43:56;;;;;;;11.80;10.43;;;;;;;;;;5083111;28;20051;-57
2023/08/27 01:46:22;;;;;;;14.38;10.45;;;;;;;;;;5084769;28;20040;-57
2023/08/27 01:48:49;;;;;;;15.70;11.15;;;;;;;;;;5093830;28;20180;-57
2023/08/27 01:51:15;;;;;;;14.95;10.80;;;;;;;;;;5084796;28;20116;-57
2023/08/27 01:53:41;;;;;;;13.50;10.80;;;;;;;;;;5093315;28;20046;-57
2023/08/27 01:56:07;;;;;;;11.57;10.35;;;;;;;;;;5087679;28;20071;-57
2023/08/27 01:58:34;;;;;;;12.45;10.48;;;;;;;;;;5092268;28;20044;-57
2023/08/27 02:01:00;;;;;;;12.57;10.10;;;;;;;;;;5093254;28;22207;-57
2023/08/27 02:03:26;;;;;;;12.95;10.48;;;;;;;;;;5090799;28;20094;-56
2023/08/27 02:05:52;;;;;;;13.45;10.50;;;;;;;;;;5093303;28;20048;-57
2023/08/27 02:08:18;;;;;;;12.65;10.07;;;;;;;;;;5084962;28;20127;-57
2023/08/27 02:10:48;;;;;;;14.57;10.45;;;;;;;;;;5098483;28;20558;-57
2023/08/27 02:13:14;;;;;;;13.27;10.10;;;;;;;;;;5081769;28;20492;-57
2023/08/27 02:15:40;;;;;;;12.40;9.88;;;;;;;;;;5082386;28;20134;-57
2023/08/27 02:18:09;;;;;;;13.63;10.07;;;;;;;;;;5079656;28;20819;-57
2023/08/27 02:20:36;;;;;;;17.48;10.50;;;;;;;;;;5082946;28;20054;-57
2023/08/27 02:23:03;;;;;;;14.38;10.43;;;;;;;;;;5086751;28;20040;-57
2023/08/27 02:25:29;;;;;;;13.75;9.93;;;;;;;;;;5093185;28;20093;-57
2023/08/27 02:27:55;;;;;;;14.15;9.38;;;;;;;;;;5100021;28;20048;-57
2023/08/27 02:30:21;;;;;;;11.32;9.70;;;;;;;;;;5085599;28;20455;-57
2023/08/27 02:32:47;;;;;;;12.40;9.30;;;;;;;;;;5081420;28;20044;-57
2023/08/27 02:35:14;;;;;;;15.85;9.15;;;;;;;;;;5104139;28;20038;-57
2023/08/27 02:37:40;;;;;;;12.80;9.93;;;;;;;;;;5091938;28;20440;-57
2023/08/27 02:40:06;;;;;;;13.88;9.45;;;;;;;;;;5094997;28;20036;-57
2023/08/27 02:42:32;;;;;;;12.15;9.65;;;;;;;;;;5096282;28;20414;-57
2023/08/27 02:44:59;;;;;;;11.93;9.68;;;;;;;;;;5088235;28;20032;-57
2023/08/27 02:47:25;;;;;;;11.70;9.27;;;;;;;;;;5107140;27;20039;-57
2023/08/27 02:49:51;;;;;;;15.63;10.63;;;;;;;;;;5100003;28;20112;-57
2023/08/27 02:52:18;;;;;;;10.38;8.77;;;;;;;;;;5092124;28;20154;-57
2023/08/27 02:54:44;;;;;;;13.43;9.85;;;;;;;;;;5095163;28;20043;-57
2023/08/27 02:57:10;;;;;;;12.10;9.43;;;;;;;;;;5109596;28;20432;-57
2023/08/27 02:59:36;;;;;;;11.38;8.27;;;;;;;;;;5111802;28;20035;-57
2023/08/27 03:02:03;;;;;;;11.73;8.65;;;;;;;;;;5109239;28;20395;-57
2023/08/27 03:04:29;;;;;;;11.77;9.18;;;;;;;;;;5089765;28;20055;-57
2023/08/27 03:06:55;;;;;;;11.35;9.43;;;;;;;;;;5098647;28;20555;-57
2023/08/27 03:09:21;;;;;;;12.45;9.48;;;;;;;;;;5101300;28;20081;-57
2023/08/27 03:11:48;;;;;;;16.60;10.98;;;;;;;;;;5107437;28;20100;-57
2023/08/27 03:14:14;;;;;;;14.63;10.27;;;;;;;;;;5093234;28;20039;-57
2023/08/27 03:16:40;;;;;;;14.00;11.60;;;;;;;;;;5109806;28;20449;-57
2023/08/27 03:19:06;;;;;;;17.73;11.25;;;;;;;;;;5109389;28;20037;-57
2023/08/27 03:21:32;;;;;;;16.58;11.32;;;;;;;;;;5109706;28;20057;-57
2023/08/27 03:23:59;;;;;;;17.50;11.93;;;;;;;;;;5093980;28;20128;-57
2023/08/27 03:26:25;;;;;;;15.30;12.20;;;;;;;;;;5102001;28;20084;-57
2023/08/27 03:28:51;;;;;;;16.60;12.63;;;;;;;;;;5096161;28;20035;-57
2023/08/27 03:31:17;;;;;;;17.98;12.82;;;;;;;;;;5103002;28;20118;-56
2023/08/27 03:33:43;;;;;;;15.38;12.80;;;;;;;;;;5111173;28;20075;-57
2023/08/27 03:36:09;;;;;;;18.08;12.93;;;;;;;;;;5096438;28;20116;-57
2023/08/27 03:38:36;;;;;;;15.93;12.70;;;;;;;;;;5096147;28;20073;-57
2023/08/27 03:41:02;;;;;;;19.42;13.15;;;;;;;;;;5087304;28;20406;-57
2023/08/27 03:43:28;;;;;;;15.55;12.65;;;;;;;;;;5086231;28;20107;-57
2023/08/27 03:45:54;;;;;;;18.70;14.02;;;;;;;;;;5090218;28;20040;-57
2023/08/27 03:48:21;;;;;;;19.33;14.13;;;;;;;;;;5091980;28;20044;-57
2023/08/27 03:50:47;;;;;;;18.77;13.15;;;;;;;;;;5092406;28;20040;-57
2023/08/27 03:53:13;;;;;;;20.58;15.20;;;;;;;;;;5090355;28;20154;-57
2023/08/27 03:55:41;;;;;;;18.52;13.52;;;;;;;;;;5101512;28;20055;-57
2023/08/27 03:58:07;;;;;;;16.05;12.68;;;;;;;;;;5088884;28;20047;-57
2023/08/27 04:00:34;;;;;;;17.58;13.90;;;;;;;;;;5089485;28;20093;-57
2023/08/27 04:03:00;;;;;;;22.15;14.40;;;;;;;;;;5089247;28;20036;-57
2023/08/27 04:05:27;;;;;;;18.98;14.60;;;;;;;;;;5087394;28;20043;-57
2023/08/27 04:07:53;;;;;;;16.35;13.77;;;;;;;;;;5093370;28;20039;-57
2023/08/27 04:10:19;;;;;;;19.02;13.85;;;;;;;;;;5110816;28;20521;-57
2023/08/27 04:12:45;;;;;;;19.52;14.23;;;;;;;;;;5107514;28;20036;-57
2023/08/27 04:15:12;;;;;;;18.05;12.77;;;;;;;;;;5111099;28;20050;-57
2023/08/27 04:17:38;;;;;;;17.00;13.73;;;;;;;;;;5110981;28;20391;-57
2023/08/27 04:20:06;;;;;;;17.95;13.93;;;;;;;;;;5105174;28;20118;-57
2023/08/27 04:22:35;;;;;;;18.50;13.07;;;;;;;;;;5097155;28;20043;-57
2023/08/27 04:25:01;;;;;;;17.05;12.52;;;;;;;;;;5109352;28;20044;-57
2023/08/27 04:27:27;;;;;;;18.27;12.57;;;;;;;;;;5110561;28;20044;-57
2023/08/27 04:29:53;;;;;;;15.57;12.43;;;;;;;;;;5103058;28;20152;-57
2023/08/27 04:32:19;;;;;;;15.13;12.00;;;;;;;;;;5104888;28;20161;-57
2023/08/27 04:34:48;;;;;;;16.17;12.05;;;;;;;;;;5094556;28;20132;-57
2023/08/27 04:37:15;;;;;;;16.55;12.43;;;;;;;;;;5107289;28;20184;-57
2023/08/27 04:39:41;;;;;;;14.45;12.15;;;;;;;;;;5110078;28;20052;-57
2023/08/27 04:42:07;;;;;;;15.30;12.35;;;;;;;;;;5104351;28;20387;-57
2023/08/27 04:44:33;;;;;;;17.25;11.73;;;;;;;;;;5114193;28;20046;-57
2023/08/27 04:47:00;;;;;;;16.95;13.55;;;;;;;;;;5113373;28;20558;-57
2023/08/27 04:49:26;;;;;;;17.27;13.40;;;;;;;;;;5106337;28;20043;-57
2023/08/27 04:51:53;;;;;;;18.35;13.82;;;;;;;;;;5106173;28;20064;-57
2023/08/27 04:54:19;;;;;;;21.15;13.82;;;;;;;;;;5113601;28;20036;-57
2023/08/27 04:56:45;;;;;;;20.92;15.23;;;;;;;;;;5101617;28;20075;-57
2023/08/27 04:59:11;;;;;;;19.27;14.93;;;;;;;;;;5112690;28;20032;-57
2023/08/27 05:01:37;;;;;;;21.67;15.85;;;;;;;;;;5105357;28;20113;-57
2023/08/27 05:04:04;;;;;;;18.65;15.07;;;;;;;;;;5103931;28;20093;-57
2023/08/27 05:06:30;;;;;;;20.83;14.68;;;;;;;;;;5113694;28;20044;-57
2023/08/27 05:08:56;;;;;;;19.92;14.30;;;;;;;;;;5113267;28;20384;-57
2023/08/27 05:11:22;;;;;;;19.02;13.60;;;;;;;;;;5093947;28;20192;-57
2023/08/27 05:13:48;;;;;;;17.80;14.48;;;;;;;;;;5111366;28;20579;-57
2023/08/27 05:16:15;;;;;;;17.88;14.15;;;;;;;;;;5112842;28;20122;-57
2023/08/27 05:18:41;;;;;;;20.85;14.93;;;;;;;;;;5104624;28;20066;-57
2023/08/27 05:21:07;;;;;;;17.60;14.05;;;;;;;;;;5106596;28;20039;-57
2023/08/27 05:23:33;;;;;;;18.40;14.23;;;;;;;;;;5112760;28;20075;-57
2023/08/27 05:25:59;;;;;;;18.10;13.48;;;;;;;;;;5094574;28;20078;-57
2023/08/27 05:28:26;;;;;;;16.17;13.68;;;;;;;;;;5098048;28;20050;-57
2023/08/27 05:30:53;;;;;;;17.58;13.45;;;;;;;;;;5112878;28;20479;-57
2023/08/27 05:33:19;;;;;;;17.90;13.70;;;;;;;;;;5107016;28;20150;-57
2023/08/27 05:35:45;;;;;;;16.15;13.82;;;;;;;;;;5094834;28;20092;-57
2023/08/27 05:38:11;;;;;;;20.13;13.32;;;;;;;;;;5099941;28;20063;-57
2023/08/27 05:40:38;;;;;;;15.38;12.35;;;;;;;;;;5113414;28;20058;-57
2023/08/27 05:43:04;;;;;;;16.90;12.40;;;;;;;;;;5098792;28;20394;-57
2023/08/27 05:45:30;;;;;;;16.85;12.75;;;;;;;;;;5104634;28;20143;-57
2023/08/27 05:47:56;;;;;;;17.38;12.35;;;;;;;;;;5113012;28;20556;-57
2023/08/27 05:50:23;;;;;;;15.27;12.95;;;;;;;;;;5111030;28;20039;-57
2023/08/27 05:52:49;;;;;;;14.60;12.25;;;;;;;;;;5100035;28;20480;-57
2023/08/27 05:55:15;;;;;;;16.20;13.50;;;;;;;;;;5094817;28;20052;-57
2023/08/27 05:57:41;;;;;;;17.65;12.15;;;;;;;;;;5112226;28;20399;-57
2023/08/27 06:00:11;;;;;;;17.98;14.15;;;;;;;;;;5098925;28;20036;-57
2023/08/27 06:02:37;;;;;;;17.85;12.20;;;;;;;;;;5103039;28;20043;-57
2023/08/27 06:05:04;;;;;;;18.73;13.88;;;;;;;;;;5110695;28;20075;-57
2023/08/27 06:07:30;;;;;;;19.65;12.98;;;;;;;;;;5098245;28;20051;-57
2023/08/27 06:09:56;;;;;;;18.33;13.55;;;;;;;;;;5111764;28;20067;-57
2023/08/27 06:12:22;;;;;;;15.48;12.57;;;;;;;;;;5099905;28;20142;-57
2023/08/27 06:14:49;;;;;;;18.52;13.23;;;;;;;;;;5100123;28;20031;-57
2023/08/27 06:17:15;;;;;;;17.85;12.68;;;;;;;;;;5112451;28;20046;-57
2023/08/27 06:19:41;;;;;;;16.00;12.40;;;;;;;;;;5106494;28;20364;-57
2023/08/27 06:22:07;;;;;;;16.58;13.00;;;;;;;;;;5092130;28;20047;-57
2023/08/27 06:24:33;;;;;;;21.23;13.38;;;;;;;;;;5104928;28;20444;-57
2023/08/27 06:26:59;;;;;;;16.38;13.18;;;;;;;;;;5098874;28;20131;-57
2023/08/27 06:29:26;;;;;;;18.95;13.60;;;;;;;;;;5093828;28;20043;-57
2023/08/27 06:31:52;;;;;;;15.90;12.43;;;;;;;;;;5103075;28;20087;-57
2023/08/27 06:34:18;;;;;;;17.85;13.45;;;;;;;;;;5112179;28;20043;-57
2023/08/27 06:36:44;;;;;;;19.52;13.68;;;;;;;;;;5106755;28;20471;-60
2023/08/27 06:39:10;;;;;;;19.75;13.88;;;;;;;;;;5094736;28;20086;-60
2023/08/27 06:41:37;;;;;;;17.83;13.65;;;;;;;;;;5107804;28;20355;-60
2023/08/27 06:44:03;;;;;;;19.23;13.48;;;;;;;;;;5111142;28;20031;-60
2023/08/27 06:46:30;;;;;;;18.73;13.55;;;;;;;;;;5110922;28;20143;-60
2023/08/27 06:48:56;;;;;;;21.23;14.43;;;;;;;;;;5098493;28;20118;-60
2023/08/27 06:51:22;;;;;;;19.23;14.45;;;;;;;;;;5106630;28;20044;-60
2023/08/27 06:53:48;;;;;;;18.83;13.82;;;;;;;;;;5109171;28;20064;-60
2023/08/27 06:56:14;;;;;;;20.08;14.07;;;;;;;;;;5107933;28;20039;-60
2023/08/27 06:58:41;;;;;;;18.33;13.93;;;;;;;;;;5096376;28;20436;-59
2023/08/27 07:01:08;;;;;;;25.55;14.95;;;;;;;;;;5097516;28;20040;-59
2023/08/27 07:03:34;;;;;;;19.85;14.18;;;;;;;;;;5096628;28;20126;-60
2023/08/27 07:06:00;;;;;;;18.98;14.30;;;;;;;;;;5102607;28;20603;-59
2023/08/27 07:08:26;;;;;;;18.38;14.32;;;;;;;;;;5096740;28;20085;-59
2023/08/27 07:10:53;;;;;;;17.45;14.07;;;;;;;;;;5108182;28;20097;-59
2023/08/27 07:13:19;;;;;;;19.40;13.35;;;;;;;;;;5092952;28;20122;-59
2023/08/27 07:15:45;;;;;;;18.85;13.05;;;;;;;;;;5099689;28;20104;-60
2023/08/27 07:18:13;;;;;;;15.52;11.77;;;;;;;;;;5104002;28;20483;-60
2023/08/27 07:20:41;;;;;;;13.05;10.05;;;;;;;;;;5104172;28;20104;-59
2023/08/27 07:23:07;;;;;;;13.50;10.52;;;;;;;;;;5101660;28;20109;-60
2023/08/27 07:25:34;;;;;;;10.52;7.38;;;;;;;;;;5096254;28;20059;-60
2023/08/27 07:28:00;;;;;;;9.27;6.93;;;;;;;;;;5093620;28;20156;-60
2023/08/27 07:30:27;;;;;;;10.05;6.30;;;;;;;;;;5090916;28;20043;-60
2023/08/27 07:32:53;;;;;;;8.50;5.78;;;;;;;;;;5097553;28;20036;-60
2023/08/27 07:35:19;;;;;;;9.00;5.20;;;;;;;;;;5095271;28;20051;-59
2023/08/27 07:37:45;;;;;;;12.00;4.50;;;;;;;;;;5096369;28;20047;-60
2023/08/27 07:40:12;;;;;;;7.50;3.67;;;;;;;;;;5103230;28;20076;-60
2023/08/27 07:42:38;;;;;;;7.93;4.22;;;;;;;;;;5108609;28;20058;-60
2023/08/27 07:45:04;;;;;;;7.25;3.00;;;;;;;;;;5096551;28;20488;-61
2023/08/27 07:47:31;;;;;;;6.70;3.63;;;;;;;;;;5102119;28;20367;-60
2023/08/27 07:49:57;;;;;;;6.45;2.90;;;;;;;;;;5099644;28;20040;-60
2023/08/27 07:52:23;;;;;;;8.82;3.67;;;;;;;;;;5099636;28;20066;-60
2023/08/27 07:54:49;;;;;;;5.88;3.25;;;;;;;;;;5102109;28;20047;-60
2023/08/27 07:57:16;;;;;;;6.65;3.85;;;;;;;;;;5097427;28;22100;-60
2023/08/27 07:59:43;;;;;;;6.15;3.60;;;;;;;;;;5106159;28;20040;-60
2023/08/27 08:02:09;;;;;;;7.38;3.08;;;;;;;;;;5111193;28;20044;-60
2023/08/27 08:04:35;;;;;;;4.18;1.98;;;;;;;;;;5110014;28;20061;-60
2023/08/27 08:07:02;;;;;;;7.53;2.00;;;;;;;;;;5107974;28;20459;-60
2023/08/27 08:09:29;;;;;;;3.30;1.63;;;;;;;;;;5102618;28;20093;-60
2023/08/27 08:11:55;;;;;;;4.70;1.65;;;;;;;;;;5095695;28;20051;-60
2023/08/27 08:14:21;;;;;;;4.45;1.60;;;;;;;;;;5093613;28;20452;-59
2023/08/27 08:16:52;;;;;;;3.33;1.60;;;;;;;;;;5097145;28;20040;-59
2023/08/27 08:19:18;;;;;;;6.53;1.67;;;;;;;;;;5091839;28;20343;-60
2023/08/27 08:21:44;;;;;;;4.25;1.65;;;;;;;;;;5103565;28;20036;-60
2023/08/27 08:24:10;;;;;;;4.65;1.67;;;;;;;;;;5113957;28;20039;-60
2023/08/27 08:26:37;;;;;;;2.92;1.30;;;;;;;;;;5107141;28;20040;-60
2023/08/27 08:29:03;;;;;;;4.13;1.60;;;;;;;;;;5107272;28;20124;-60
2023/08/27 08:31:29;;;;;;;3.53;1.40;;;;;;;;;;5109973;28;20200;-59
2023/08/27 08:33:56;;;;;;;4.95;1.50;;;;;;;;;;5094242;28;20036;-60
2023/08/27 08:36:22;;;;;;;3.72;1.00;;;;;;;;;;5095794;28;20484;-60
2023/08/27 08:38:48;;;;;;;2.17;0.95;;;;;;;;;;5104887;28;20112;-60
2023/08/27 08:41:18;;;;;;;2.38;0.60;;;;;;;;;;5102659;28;20051;-60
2023/08/27 08:43:47;;;;;;;1.27;0.50;;;;;;;;;;5112191;28;20049;-60
2023/08/27 08:46:17;;;;;;;2.22;0.70;;;;;;;;;;5106080;28;20050;-60
2023/08/27 08:48:44;;;;;;;1.35;0.52;;;;;;;;;;5102953;28;20051;-60
2023/08/27 08:51:12;;;;;;;1.65;0.60;;;;;;;;;;5095071;28;20047;-60
2023/08/27 08:53:42;;;;;;;3.92;0.68;;;;;;;;;;5110097;28;20384;-60
2023/08/27 08:56:13;;;;;;;1.17;0.50;;;;;;;;;;5114192;28;20046;-60
2023/08/27 08:58:41;;;;;;;1.40;0.50;;;;;;;;;;5101864;28;20515;-60
2023/08/27 09:01:08;;;;;;;1.13;0.45;;;;;;;;;;5101664;28;20040;-60
2023/08/27 09:03:35;;;;;;;1.20;0.43;;;;;;;;;;5113911;28;20035;-60
2023/08/27 09:06:02;;;;;;;3.17;0.88;;;;;;;;;;5108635;28;20040;-60
2023/08/27 09:08:32;;;;;;;1.02;0.50;;;;;;;;;;5096206;28;20931;-60
2023/08/27 09:10:58;;;;;;;1.33;0.50;;;;;;;;;;5109490;28;20040;-60
2023/08/27 09:13:24;;;;;;;2.15;0.70;;;;;;;;;;5104357;28;20039;-60
2023/08/27 09:15:51;;;;;;;1.75;0.75;;;;;;;;;;5113959;28;20043;-60
2023/08/27 09:18:17;;;;;;;1.90;0.70;;;;;;;;;;5100682;28;20115;-60
2023/08/27 09:20:44;;;;;;;1.98;0.70;;;;;;;;;;5109748;28;20838;-60
2023/08/27 09:23:11;;;;;;;2.05;0.80;;;;;;;;;;5113419;28;20110;-60
2023/08/27 09:25:38;;;;;;;2.65;0.70;;;;;;;;;;5113705;28;20103;-60
2023/08/27 09:28:05;;;;;;;3.20;0.80;;;;;;;;;;5094751;27;20150;-60
2023/08/27 09:30:32;;;;;;;3.40;0.88;;;;;;;;;;5098383;28;20125;-64
2023/08/27 09:32:58;;;;;;;1.70;0.70;;;;;;;;;;5094109;28;20046;-60
2023/08/27 09:35:35;;;;;;;2.15;0.73;;;;;;;;;;5095108;28;20040;-60
2023/08/27 09:38:02;;;;;;;2.13;1.00;;;;;;;;;;5092159;28;20093;-60
2023/08/27 09:40:28;;;;;;;2.50;0.70;;;;;;;;;;5088234;28;20109;-60
2023/08/27 09:43:07;;;;;;;2.97;1.15;;;;;;;;;;5091963;28;20047;-60
2023/08/27 09:45:33;;;;;;;1.42;0.70;;;;;;;;;;5090209;28;20032;-60
2023/08/27 09:48:00;;;;;;;2.30;0.93;;;;;;;;;;5106600;27;20459;-60
2023/08/27 09:50:29;;;;;;;1.70;0.70;;;;;;;;;;5089668;28;20561;-60
2023/08/27 09:53:05;;;;;;;2.72;0.88;;;;;;;;;;5092370;28;20091;-60
2023/08/27 09:55:33;;;;;;;2.20;0.80;;;;;;;;;;5095182;28;20218;-60
2023/08/27 09:57:59;;;;;;;3.47;0.93;;;;;;;;;;5087127;28;20040;-60
2023/08/27 10:00:27;;;;;;;4.97;1.08;;;;;;;;;;5089638;28;20460;-59
2023/08/27 10:02:54;;;;;;;3.53;1.00;;;;;;;;;;5087488;28;20064;-60
2023/08/27 10:05:30;;;;;;;3.28;1.10;;;;;;;;;;5088512;28;20044;-60
2023/08/27 10:08:00;;;;;;;3.05;1.02;;;;;;;;;;5089268;28;20504;-61
2023/08/27 10:10:27;;;;;;;2.75;1.10;;;;;;;;;;5088215;28;20120;-60
2023/08/27 10:12:54;;;;;;;2.72;1.05;;;;;;;;;;5088144;28;20571;-60
2023/08/27 10:15:20;;;;;;;4.07;1.40;;;;;;;;;;5089121;28;20125;-60
2023/08/27 10:17:47;;;;;;;3.33;1.42;;;;;;;;;;5097568;28;20050;-60
2023/08/27 10:20:13;;;;;;;6.55;1.85;;;;;;;;;;5083966;28;20051;-60
2023/08/27 10:22:40;;;;;;;4.63;1.75;;;;;;;;;;5102953;28;20485;-60
2023/08/27 10:25:07;;;;;;;5.05;2.17;;;;;;;;;;5088817;28;20119;-60
2023/08/27 10:27:33;;;;;;;4.45;2.38;;;;;;;;;;5090393;28;20040;-60
2023/08/27 10:30:01;;;;;;;9.23;2.50;;;;;;;;;;5089086;28;20044;-60
2023/08/27 10:32:27;;;;;;;7.78;2.63;;;;;;;;;;5084677;28;20048;-59
2023/08/27 10:34:53;;;;;;;8.88;2.17;;;;;;;;;;5092462;28;20067;-60
2023/08/27 10:37:21;;;;;;;7.18;2.63;;;;;;;;;;5089940;28;20048;-59
2023/08/27 10:39:48;;;;;;;4.55;2.00;;;;;;;;;;5092009;28;20040;-60
2023/08/27 10:42:31;;;;;;;6.75;1.60;;;;;;;;;;5097683;28;20062;-61
2023/08/27 10:45:18;;;;;;;5.40;2.05;;;;;;;;;;5093265;28;20040;-59
2023/08/27 10:48:12;;;;;;;3.13;1.67;;;;;;;;;;5086578;28;20052;-60
2023/08/27 10:50:58;;;;;;;4.47;1.90;;;;;;;;;;5090786;28;20115;-60
2023/08/27 10:53:25;;;;;;;6.22;2.05;;;;;;;;;;5087917;28;20166;-59
2023/08/27 10:55:52;;;;;;;11.27;2.90;;;;;;;;;;5089291;28;20036;-60
2023/08/27 10:58:22;;;;;;;7.20;2.33;;;;;;;;;;5089852;28;20046;-60
2023/08/27 11:01:04;;;;;;;5.47;2.30;;;;;;;;;;5089267;28;20040;-65
2023/08/27 11:03:49;;;;;;;5.65;2.47;;;;;;;;;;5102310;28;20072;-65
2023/08/27 11:06:15;;;;;;;5.32;2.28;;;;;;;;;;5084928;28;20040;-60
2023/08/27 11:08:42;;;;;;;5.53;1.90;;;;;;;;;;5093242;28;20079;-60
2023/08/27 11:11:12;;;;;;;4.22;1.50;;;;;;;;;;5108225;28;20048;-60
2023/08/27 11:13:41;;;;;;;3.70;1.50;;;;;;;;;;5087197;28;20040;-60
2023/08/27 11:16:12;;;;;;;4.68;1.70;;;;;;;;;;5107172;28;20084;-60
2023/08/27 11:19:04;;;;;;;5.78;1.60;;;;;;;;;;5093858;28;20040;-60
2023/08/27 11:21:30;;;;;;;5.97;2.45;;;;;;;;;;5093092;28;20084;-60
2023/08/27 11:24:15;;;;;;;8.50;1.50;;;;;;;;;;5101122;28;20047;-60
2023/08/27 11:26:41;;;;;;;10.15;1.05;;;;;;;;;;5111088;28;20039;-60
2023/08/27 11:29:11;;;;;;;4.20;0.90;;;;;;;;;;5092352;28;20032;-59
2023/08/27 11:31:41;;;;;;;9.98;0.95;;;;;;;;;;5104704;28;20107;-60
2023/08/27 11:34:08;;;;;;;4.47;1.10;;;;;;;;;;5084326;28;20533;-60
2023/08/27 11:36:34;;;;;;;4.60;0.90;;;;;;;;;;5086867;28;20062;-60
2023/08/27 11:39:01;;;;;;;5.28;0.75;;;;;;;;;;5084596;28;20032;-61
2023/08/27 11:41:36;;;;;;;6.00;1.00;;;;;;;;;;5084450;28;20044;-61
2023/08/27 11:44:03;;;;;;;4.53;0.95;;;;;;;;;;5085157;28;20144;-59
2023/08/27 11:46:29;;;;;;;2.47;0.90;;;;;;;;;;5090100;28;20059;-59
2023/08/27 11:48:55;;;;;;;5.18;0.95;;;;;;;;;;5086026;28;20062;-60
2023/08/27 11:51:22;;;;;;;3.83;0.90;;;;;;;;;;5088538;28;20441;-60
2023/08/27 11:53:48;;;;;;;4.03;0.80;;;;;;;;;;5091889;28;20417;-60
2023/08/27 11:56:17;;;;;;;3.63;0.95;;;;;;;;;;5091914;28;20139;-60
2023/08/27 11:58:44;;;;;;;4.55;0.93;;;;;;;;;;5094653;28;20036;-59
2023/08/27 12:01:14;;;;;;;7.05;1.15;;;;;;;;;;5091252;28;20081;-60
2023/08/27 12:03:41;;;;;;;4.20;0.93;;;;;;;;;;5090937;28;20119;-60
2023/08/27 12:06:15;;;;;;;2.28;0.70;;;;;;;;;;5094693;28;20032;-60
2023/08/27 12:08:41;;;;;;;2.97;0.90;;;;;;;;;;5105635;28;20398;-60
2023/08/27 12:11:07;;;;;;;1.83;0.60;;;;;;;;;;5098160;28;20051;-60
2023/08/27 12:13:34;;;;;;;3.85;0.70;;;;;;;;;;5105074;27;20048;-60
2023/08/27 12:16:03;;;;;;;1.45;0.50;;;;;;;;;;5102216;28;20051;-59
2023/08/27 12:18:35;;;;;;;2.05;0.65;;;;;;;;;;5095669;28;20440;-60
2023/08/27 12:21:07;;;;;;;3.33;0.80;;;;;;;;;;5098383;28;20491;-60
2023/08/27 12:23:34;;;;;;;1.75;0.50;;;;;;;;;;5093275;28;20055;-60
2023/08/27 12:26:02;;;;;;;2.75;0.68;;;;;;;;;;5098039;28;20043;-66
2023/08/27 12:28:30;;;;;;;1.27;0.80;;;;;;;;;;5089463;28;20476;-60
2023/08/27 12:30:59;;;;;;;3.25;0.60;;;;;;;;;;5090347;28;20124;-60
2023/08/27 12:33:39;;;;;;;2.15;0.63;;;;;;;;;;5114131;28;20035;-60
2023/08/27 12:36:06;;;;;;;2.65;0.75;;;;;;;;;;5104782;28;20040;-60
2023/08/27 12:38:33;;;;;;;1.85;0.60;;;;;;;;;;5099411;28;20098;-60
2023/08/27 12:40:59;;;;;;;4.90;1.23;;;;;;;;;;5114698;28;20441;-60
2023/08/27 12:43:25;;;;;;;3.05;0.73;;;;;;;;;;5114485;28;20425;-60
2023/08/27 12:45:52;;;;;;;5.35;0.73;;;;;;;;;;5113493;28;20058;-60
2023/08/27 12:48:18;;;;;;;3.28;0.70;;;;;;;;;;5114301;28;20095;-60
2023/08/27 12:50:44;;;;;;;3.13;0.73;;;;;;;;;;5098845;28;20483;-60
2023/08/27 12:53:10;;;;;;;2.72;0.90;;;;;;;;;;5103318;28;20409;-60
2023/08/27 12:55:36;;;;;;;3.97;0.70;;;;;;;;;;5100352;28;20179;-60
2023/08/27 12:58:03;;;;;;;2.47;0.70;;;;;;;;;;5114099;28;20036;-60
2023/08/27 13:00:29;;;;;;;4.78;1.25;;;;;;;;;;5113227;28;20097;-60
2023/08/27 13:02:55;;;;;;;2.55;0.60;;;;;;;;;;5108746;28;20147;-60
2023/08/27 13:05:21;;;;;;;2.47;0.70;;;;;;;;;;5100571;28;20036;-60
2023/08/27 13:07:47;;;;;;;4.13;1.00;;;;;;;;;;5090939;28;20043;-61
2023/08/27 13:10:14;;;;;;;3.90;0.98;;;;;;;;;;5103390;28;20035;-61
2023/08/27 13:12:40;;;;;;;4.97;1.23;;;;;;;;;;5113040;28;20127;-60
2023/08/27 13:15:06;;;;;;;5.18;0.88;;;;;;;;;;5109164;28;20059;-60
2023/08/27 13:17:33;;;;;;;5.63;0.82;;;;;;;;;;5092442;28;20085;-60
2023/08/27 13:20:00;;;;;;;5.40;1.00;;;;;;;;;;5107386;28;20087;-60
2023/08/27 13:22:26;;;;;;;4.47;0.68;;;;;;;;;;5092075;28;20044;-60
2023/08/27 13:24:52;;;;;;;3.08;0.80;;;;;;;;;;5090432;28;20040;-60
2023/08/27 13:27:19;;;;;;;4.97;0.93;;;;;;;;;;5092159;28;20051;-61
2023/08/27 13:29:45;;;;;;;4.30;0.60;;;;;;;;;;5093273;28;20123;-60
2023/08/27 13:32:11;;;;;;;3.15;0.70;;;;;;;;;;5101661;28;20062;-60
2023/08/27 13:34:37;;;;;;;3.45;0.73;;;;;;;;;;5091521;28;20123;-63
2023/08/27 13:37:04;;;;;;;3.80;0.98;;;;;;;;;;5087176;28;20130;-60
2023/08/27 13:39:30;;;;;;;3.40;0.75;;;;;;;;;;5090492;28;20051;-60
2023/08/27 13:42:02;;;;;;;4.20;0.80;;;;;;;;;;5094327;28;20040;-60
2023/08/27 13:44:28;;;;;;;3.30;0.90;;;;;;;;;;5091346;28;20044;-61
2023/08/27 13:46:54;;;;;;;4.55;1.20;;;;;;;;;;5090529;28;20051;-60
2023/08/27 13:49:20;;;;;;;2.53;0.85;;;;;;;;;;5092124;28;20698;-62
2023/08/27 13:51:47;;;;;;;4.35;0.90;;;;;;;;;;5088527;28;20109;-60
2023/08/27 13:54:13;;;;;;;5.72;1.20;;;;;;;;;;5092169;28;20500;-60
2023/08/27 13:56:39;;;;;;;7.45;1.80;;;;;;;;;;5077458;28;20052;-60
2023/08/27 13:59:05;;;;;;;135.15;8.90;;;;;;;;;;5091805;28;20044;-60
2023/08/27 14:01:32;;;;;;;552.03;33.47;;;;;;;;;;5091904;28;20518;-59
2023/08/27 14:03:58;;;;;;;31.88;2.95;;;;;;;;;;5090319;28;20091;-59
2023/08/27 14:06:25;;;;;;;265.95;15.00;;;;;;;;;;5091651;28;20047;-60
2023/08/27 14:08:52;;;;;;;9.13;1.70;;;;;;;;;;5091081;28;20040;-60
2023/08/27 14:11:18;;;;;;;8.30;1.50;;;;;;;;;;5089906;28;20509;-60
2023/08/27 14:13:44;;;;;;;4.53;0.77;;;;;;;;;;5094197;28;20040;-59
2023/08/27 14:16:14;;;;;;;3.40;1.00;;;;;;;;;;5089888;28;20044;-60
2023/08/27 14:18:40;;;;;;;8.85;0.80;;;;;;;;;;5091846;28;20140;-60
2023/08/27 14:21:07;;;;;;;5.45;0.80;;;;;;;;;;5092222;28;20055;-59
2023/08/27 14:23:33;;;;;;;5.40;0.88;;;;;;;;;;5089844;28;20058;-59
2023/08/27 14:26:00;;;;;;;11.68;1.20;;;;;;;;;;5090550;28;20054;-60
2023/08/27 14:28:26;;;;;;;6.95;0.90;;;;;;;;;;5090540;28;20066;-60
2023/08/27 14:30:52;;;;;;;2.47;1.10;;;;;;;;;;5089218;28;20129;-60